createdAt,value
2022-08-16T00:01:15.495Z,69219.94
2022-08-16T00:03:42.855Z,69211.00
2022-08-16T00:06:10.261Z,69204.94
2022-08-16T00:08:38.104Z,69193.13
2022-08-16T00:11:15.166Z,69165.63
2022-08-16T00:13:54.021Z,69168.81
2022-08-16T00:17:01.606Z,69164.25
2022-08-16T00:19:17.987Z,69165.38
2022-08-16T00:21:46.587Z,69150.94
2022-08-16T00:24:31.186Z,69139.16
2022-08-16T00:27:01.919Z,69129.47
2022-08-16T00:29:29.829Z,69124.31
2022-08-16T00:32:01.612Z,69120.91
2022-08-16T00:34:43.601Z,69122.78
2022-08-16T00:37:17.025Z,69126.44
2022-08-16T00:39:47.828Z,69130.59
2022-08-16T00:42:30.797Z,69124.72
2022-08-16T00:45:09.690Z,69113.09
2022-08-16T00:47:49.548Z,69119.59
2022-08-16T00:50:21.082Z,69119.59
2022-08-16T00:52:51.036Z,69117.31
2022-08-16T00:55:22.320Z,69117.88
2022-08-16T00:57:59.903Z,69119.78
2022-08-16T01:00:32.234Z,69124.31
2022-08-16T01:03:11.686Z,69123.75
2022-08-16T01:05:41.688Z,69127.59
2022-08-16T01:08:35.363Z,69129.28
2022-08-16T01:11:00.006Z,69103.50
2022-08-16T01:13:32.571Z,69100.06
2022-08-16T01:16:03.080Z,69117.50
2022-08-16T01:18:40.739Z,69119.59
2022-08-16T01:21:23.005Z,69115.22
2022-08-16T01:24:44.556Z,69121.28
2022-08-16T01:27:21.942Z,69119.78
2022-08-16T01:29:59.490Z,69118.28
2022-08-16T01:32:35.964Z,69112.34
2022-08-16T01:35:09.185Z,69108.59
2022-08-16T01:37:54.204Z,69104.59
2022-08-16T01:40:29.164Z,69095.25
2022-08-16T01:42:57.068Z,69092.41
2022-08-16T01:45:24.423Z,69092.97
2022-08-16T01:48:20.108Z,69090.53
2022-08-16T01:51:08.485Z,69087.69
2022-08-16T01:53:36.762Z,69095.84
2022-08-16T01:56:28.131Z,69095.66
2022-08-16T01:58:59.167Z,69090.72
2022-08-16T02:01:29.271Z,69092.22
2022-08-16T02:03:58.353Z,69098.34
2022-08-16T02:06:34.520Z,69101.75
2022-08-16T02:09:11.936Z,69105.19
2022-08-16T02:11:48.633Z,69099.84
2022-08-16T02:14:27.273Z,69103.97
2022-08-16T02:16:58.614Z,69117.88
2022-08-16T02:20:00.159Z,69119.59
2022-08-16T02:22:34.438Z,69115.78
2022-08-16T02:25:06.581Z,69126.44
2022-08-16T02:27:35.652Z,69101.78
2022-08-16T02:30:07.989Z,69098.38
2022-08-16T02:32:50.324Z,69124.91
2022-08-16T02:35:22.922Z,69097.81
2022-08-16T02:37:53.495Z,69097.81
2022-08-16T02:40:25.729Z,69122.03
2022-08-16T02:42:54.609Z,69116.53
2022-08-16T02:45:27.781Z,69113.66
2022-08-16T02:48:01.724Z,69112.34
2022-08-16T02:50:55.331Z,69113.72
2022-08-16T02:53:32.492Z,69085.81
2022-08-16T02:56:00.485Z,69107.63
2022-08-16T02:58:28.409Z,69116.59
2022-08-16T03:00:57.713Z,69085.81
2022-08-16T03:04:29.628Z,69112.75
2022-08-16T03:06:38.883Z,69130.41
2022-08-16T03:09:15.112Z,69125.06
2022-08-16T03:11:48.164Z,69126.78
2022-08-16T03:14:21.350Z,69132.88
2022-08-16T03:16:58.566Z,69133.44
2022-08-16T03:19:47.098Z,69131.72
2022-08-16T03:22:28.779Z,69104.06
2022-08-16T03:25:00.813Z,69138.19
2022-08-16T03:27:34.254Z,69118.81
2022-08-16T03:30:17.286Z,69119.78
2022-08-16T03:32:51.638Z,69118.47
2022-08-16T03:35:24.459Z,69104.22
2022-08-16T03:38:04.376Z,69092.22
2022-08-16T03:40:53.405Z,69087.13
2022-08-16T03:43:24.338Z,69096.22
2022-08-16T03:46:44.383Z,69101.72
2022-08-16T03:49:04.184Z,69103.06
2022-08-16T03:51:31.562Z,69076.16
2022-08-16T03:54:04.188Z,69095.09
2022-08-16T03:56:56.714Z,69098.69
2022-08-16T03:59:29.418Z,69112.91
2022-08-16T04:02:01.233Z,69116.19
2022-08-16T04:04:33.344Z,69127.59
2022-08-16T04:07:06.966Z,69112.03
2022-08-16T04:09:38.676Z,69143.53
2022-08-16T04:12:54.377Z,69122.88
2022-08-16T04:14:59.917Z,69117.75
2022-08-16T04:17:29.904Z,69141.25
2022-08-16T04:19:58.478Z,69132.69
2022-08-16T04:22:27.957Z,69139.53
2022-08-16T04:25:00.161Z,69139.72
2022-08-16T04:27:34.573Z,69150.34
2022-08-16T04:30:05.209Z,69144.84
2022-08-16T04:32:42.477Z,69131.41
2022-08-16T04:35:18.641Z,69153.22
2022-08-16T04:37:48.695Z,69145.97
2022-08-16T04:40:27.360Z,69156.25
2022-08-16T04:42:56.643Z,69169.75
2022-08-16T04:45:36.357Z,69177.19
2022-08-16T04:48:21.709Z,69177.94
2022-08-16T04:50:59.310Z,69185.34
2022-08-16T04:53:42.519Z,69187.44
2022-08-16T04:56:11.091Z,69180.59
2022-08-16T04:58:45.951Z,69181.16
2022-08-16T05:01:17.787Z,69159.94
2022-08-16T05:04:01.131Z,69195.81
2022-08-16T05:06:45.008Z,69170.75
2022-08-16T05:09:19.275Z,69215.94
2022-08-16T05:11:52.976Z,69230.94
2022-08-16T05:14:45.475Z,69234.59
2022-08-16T05:17:13.165Z,69219.53
2022-08-16T05:19:40.959Z,69226.22
2022-08-16T05:22:18.116Z,69230.03
2022-08-16T05:24:49.899Z,69222.97
2022-08-16T05:27:22.713Z,69233.06
2022-08-16T05:30:00.931Z,69213.50
2022-08-16T05:32:34.129Z,69253.75
2022-08-16T05:35:10.914Z,69253.56
2022-08-16T05:37:41.979Z,69234.59
2022-08-16T05:40:13.577Z,69263.84
2022-08-16T05:42:47.827Z,69278.13
2022-08-16T05:45:21.466Z,69292.56
2022-08-16T05:47:59.558Z,69301.13
2022-08-16T05:50:34.865Z,69314.06
2022-08-16T05:53:03.626Z,69339.00
2022-08-16T05:55:40.467Z,69352.47
2022-08-16T05:58:08.608Z,69379.91
2022-08-16T06:00:37.223Z,69398.97
2022-08-16T06:03:04.555Z,69406.56
2022-08-16T06:05:56.727Z,69424.81
2022-08-16T06:08:31.509Z,69436.41
2022-08-16T06:11:09.971Z,69449.19
2022-08-16T06:13:42.140Z,69505.16
2022-08-16T06:16:18.116Z,69558.66
2022-08-16T06:18:49.223Z,69530.28
2022-08-16T06:21:22.509Z,69553.34
2022-08-16T06:23:54.110Z,69558.50
2022-08-16T06:26:22.703Z,69552.38
2022-08-16T06:28:52.477Z,69555.22
2022-08-16T06:31:28.466Z,69567.81
2022-08-16T06:33:58.926Z,69578.53
2022-08-16T06:36:32.298Z,69594.09
2022-08-16T06:39:21.376Z,69606.13
2022-08-16T06:41:56.404Z,69635.84
2022-08-16T06:44:42.357Z,69614.84
2022-08-16T06:47:52.423Z,69628.59
2022-08-16T06:50:22.037Z,69649.19
2022-08-16T06:53:01.010Z,69695.72
2022-08-16T06:55:38.324Z,69667.47
2022-08-16T06:58:22.907Z,69654.91
2022-08-16T07:01:04.743Z,69680.63
2022-08-16T07:03:55.687Z,69656.28
2022-08-16T07:06:31.770Z,69669.44
2022-08-16T07:09:09.797Z,69663.31
2022-08-16T07:11:47.496Z,69677.03
2022-08-16T07:14:28.491Z,69678.34
2022-08-16T07:16:59.661Z,69702.34
2022-08-16T07:19:33.479Z,69723.53
2022-08-16T07:22:36.539Z,69763.41
2022-08-16T07:25:12.241Z,69737.66
2022-08-16T07:27:40.576Z,69741.13
2022-08-16T07:30:39.814Z,69713.78
2022-08-16T07:33:07.045Z,69695.47
2022-08-16T07:35:36.766Z,69704.06
2022-08-16T07:38:11.650Z,69700.06
2022-08-16T07:41:01.261Z,69701.03
2022-08-16T07:43:32.274Z,69696.63
2022-08-16T07:46:03.367Z,69760.97
2022-08-16T07:48:34.317Z,69779.28
2022-08-16T07:51:08.873Z,69770.41
2022-08-16T07:53:43.290Z,69794.44
2022-08-16T07:56:11.598Z,69829.25
2022-08-16T07:58:40.616Z,69803.63
2022-08-16T08:01:15.265Z,69797.88
2022-08-16T08:03:54.072Z,69825.25
2022-08-16T08:06:30.191Z,69805.34
2022-08-16T08:09:04.517Z,69818.47
2022-08-16T08:11:33.542Z,69818.47
2022-08-16T08:14:06.619Z,69836.81
2022-08-16T08:16:45.418Z,69866.44
2022-08-16T08:19:24.599Z,69884.03
2022-08-16T08:21:59.392Z,69885.47
2022-08-16T08:24:44.311Z,69905.50
2022-08-16T08:27:13.162Z,69907.78
2022-08-16T08:30:49.775Z,69931.59
2022-08-16T08:32:57.028Z,69912.94
2022-08-16T08:35:29.935Z,69928.97
2022-08-16T08:38:00.182Z,69937.56
2022-08-16T08:40:29.761Z,69971.25
2022-08-16T08:43:11.832Z,69968.97
2022-08-16T08:45:53.287Z,69967.94
2022-08-16T08:48:34.664Z,70003.91
2022-08-16T08:51:10.029Z,70002.63
2022-08-16T08:53:57.539Z,70014.22
2022-08-16T08:56:34.927Z,70014.34
2022-08-16T08:59:28.107Z,70070.41
2022-08-16T09:01:56.995Z,70093.78
2022-08-16T09:04:27.130Z,70079.66
2022-08-16T09:06:55.984Z,70099.16
2022-08-16T09:09:33.811Z,70085.97
2022-08-16T09:12:06.816Z,70100.63
2022-08-16T09:14:57.144Z,70073.94
2022-08-16T09:20:16.687Z,70112.34
2022-08-16T09:22:51.409Z,70155.28
2022-08-16T09:25:23.598Z,70135.84
2022-08-16T09:27:57.626Z,70137.00
2022-08-16T09:30:43.251Z,70128.41
2022-08-16T09:33:14.512Z,70131.84
2022-08-16T09:35:42.465Z,70122.66
2022-08-16T09:38:12.908Z,70123.22
2022-08-16T09:40:59.132Z,70145.00
2022-08-16T09:44:00.530Z,70143.81
2022-08-16T09:46:45.045Z,70130.13
2022-08-16T09:49:03.695Z,70161.66
2022-08-16T09:51:37.199Z,70185.66
2022-08-16T09:54:06.304Z,70144.44
2022-08-16T09:56:52.395Z,70162.00
2022-08-16T09:59:23.565Z,70127.84
2022-08-16T10:01:54.688Z,70139.81
2022-08-16T10:04:34.260Z,70143.22
2022-08-16T10:07:15.290Z,70186.22
2022-08-16T10:09:55.150Z,70202.38
2022-08-16T10:12:55.776Z,70213.25
2022-08-16T10:15:25.417Z,70219.00
2022-08-16T10:18:01.106Z,70190.34
2022-08-16T10:20:34.790Z,70200.66
2022-08-16T10:23:08.592Z,70213.25
2022-08-16T10:27:18.442Z,70178.25
2022-08-16T10:28:32.548Z,70191.47
2022-08-16T10:31:14.727Z,70197.22
2022-08-16T10:33:57.193Z,70220.69
2022-08-16T10:36:39.148Z,70201.22
2022-08-16T10:39:08.570Z,70208.13
2022-08-16T10:41:35.885Z,70199.50
2022-08-16T10:47:38.816Z,70214.41
2022-08-16T10:50:07.453Z,70216.72
2022-08-16T10:52:49.608Z,70215.56
2022-08-16T10:58:11.856Z,70238.50
2022-08-16T11:00:41.048Z,70215.00
2022-08-16T11:03:43.254Z,70178.25
2022-08-16T11:06:00.052Z,70202.31
2022-08-16T11:08:35.165Z,70215.00
2022-08-16T11:11:12.979Z,70247.13
2022-08-16T11:14:10.580Z,70256.88
2022-08-16T11:19:23.296Z,70243.66
2022-08-16T11:24:42.364Z,70272.34
2022-08-16T11:27:20.381Z,70290.69
2022-08-16T11:29:50.044Z,70236.22
2022-08-16T11:32:29.807Z,70196.06
2022-08-16T11:35:14.369Z,70195.41
2022-08-16T11:38:23.416Z,70215.56
2022-08-16T11:40:53.171Z,70235.06
2022-08-16T11:43:26.502Z,70257.47
2022-08-16T11:45:56.795Z,70253.41
2022-08-16T11:48:30.038Z,70309.06
2022-08-16T11:50:57.714Z,70303.94
2022-08-16T11:53:25.193Z,70287.28
2022-08-16T11:55:54.862Z,70272.94
2022-08-16T11:58:24.749Z,70290.69
2022-08-16T12:00:55.212Z,70225.84
2022-08-16T12:03:31.608Z,70235.00
2022-08-16T12:06:10.650Z,70248.25
2022-08-16T12:08:41.580Z,70245.41
2022-08-16T12:11:10.891Z,70255.72
2022-08-16T12:13:40.243Z,70271.72
2022-08-16T12:16:09.255Z,70266.63
2022-08-16T12:18:37.880Z,70267.22
2022-08-16T12:21:07.281Z,70308.31
2022-08-16T12:23:37.899Z,70287.25
2022-08-16T12:26:06.267Z,70300.44
2022-08-16T12:28:55.065Z,70285.56
2022-08-16T12:31:24.967Z,70293.59
2022-08-16T12:33:54.200Z,70299.88
2022-08-16T12:36:24.442Z,70320.56
2022-08-16T12:38:52.983Z,70340.66
2022-08-16T12:41:25.450Z,70346.34
2022-08-16T12:44:01.006Z,70348.50
2022-08-16T12:46:29.292Z,70337.22
2022-08-16T12:49:00.237Z,70371.66
2022-08-16T12:51:58.926Z,70424.47
2022-08-16T12:54:26.809Z,70444.00
2022-08-16T12:56:53.963Z,70437.09
2022-08-16T12:59:23.559Z,70431.94
2022-08-16T13:01:58.176Z,70457.78
2022-08-16T13:04:28.060Z,70462.97
2022-08-16T13:09:32.872Z,70473.88
2022-08-16T13:12:23.521Z,70465.28
2022-08-16T13:14:53.801Z,70451.47
2022-08-16T13:17:26.329Z,70459.50
2022-08-16T13:20:07.575Z,70483.06
2022-08-16T13:25:21.454Z,70506.63
2022-08-16T13:28:02.461Z,70539.94
2022-08-16T13:30:37.198Z,70551.47
2022-08-16T13:33:13.315Z,70492.84
2022-08-16T13:35:46.220Z,70479.59
2022-08-16T13:38:25.810Z,70411.84
2022-08-16T13:40:55.959Z,70391.16
2022-08-16T13:43:26.404Z,70376.22
2022-08-16T13:45:55.905Z,70391.16
2022-08-16T13:48:37.145Z,70344.66
2022-08-16T13:51:16.639Z,70346.34
2022-08-16T13:53:58.113Z,70324.53
2022-08-16T13:56:38.141Z,70334.34
2022-08-16T13:59:20.476Z,70398.47
2022-08-16T14:01:59.812Z,70426.19
2022-08-16T14:04:32.378Z,70437.69
2022-08-16T14:07:02.386Z,70435.97
2022-08-16T14:09:31.969Z,70444.00
2022-08-16T14:12:01.064Z,70460.06
2022-08-16T14:14:32.403Z,70502.59
2022-08-16T14:17:02.547Z,70516.97
2022-08-16T14:19:31.171Z,70508.91
2022-08-16T14:22:14.344Z,70512.94
2022-08-16T14:24:47.050Z,70504.31
2022-08-16T14:27:21.277Z,70476.16
2022-08-16T14:29:50.888Z,70491.69
2022-08-16T14:32:33.602Z,70478.47
2022-08-16T14:35:07.270Z,70504.91
2022-08-16T14:37:35.760Z,70530.75
2022-08-16T14:40:06.039Z,70529.63
2022-08-16T14:42:33.711Z,70508.91
2022-08-16T14:45:05.658Z,70435.41
2022-08-16T14:47:34.784Z,70407.84
2022-08-16T14:50:05.765Z,70416.97
2022-08-16T14:55:21.727Z,70354.44
2022-08-16T14:57:49.683Z,70381.97
2022-08-16T15:00:20.125Z,70396.94
2022-08-16T15:02:56.464Z,70396.94
2022-08-16T15:05:26.176Z,70379.13
2022-08-16T15:07:56.571Z,70360.16
2022-08-16T15:10:29.227Z,70355.56
2022-08-16T15:12:58.557Z,70353.28
2022-08-16T15:15:28.320Z,70379.66
2022-08-16T15:17:57.044Z,70384.69
2022-08-16T15:20:29.271Z,70385.41
2022-08-16T15:23:01.995Z,70355.59
2022-08-16T15:25:41.819Z,70324.00
2022-08-16T15:28:30.720Z,70311.38
2022-08-16T15:31:03.395Z,70303.75
2022-08-16T15:33:34.564Z,70274.09
2022-08-16T15:36:04.558Z,70266.63
2022-08-16T15:39:03.765Z,70302.16
2022-08-16T15:41:38.377Z,70273.50
2022-08-16T15:44:11.879Z,70255.16
2022-08-16T15:46:55.543Z,70263.13
2022-08-16T15:49:34.357Z,70225.91
2022-08-16T15:52:32.191Z,70211.53
2022-08-16T15:55:13.073Z,70226.47
2022-08-16T15:57:51.546Z,70274.09
2022-08-16T16:00:20.782Z,70315.22
2022-08-16T16:02:49.448Z,70343.50
2022-08-16T16:05:19.489Z,70332.06
2022-08-16T16:07:56.205Z,70330.34
2022-08-16T16:10:29.536Z,70351.38
2022-08-16T16:12:59.757Z,70320.00
2022-08-16T16:15:30.363Z,70336.59
2022-08-16T16:17:57.869Z,70338.16
2022-08-16T16:20:27.152Z,70350.78
2022-08-16T16:23:03.498Z,70353.28
2022-08-16T16:25:32.383Z,70334.91
2022-08-16T16:28:01.413Z,70356.69
2022-08-16T16:30:44.279Z,70349.81
2022-08-16T16:33:21.063Z,70326.28
2022-08-16T16:35:55.229Z,70332.06
2022-08-16T16:38:30.740Z,70336.03
2022-08-16T16:40:59.944Z,70305.06
2022-08-16T16:43:31.903Z,70298.19
2022-08-16T16:46:05.869Z,70302.78
2022-08-16T16:48:52.594Z,70301.00
2022-08-16T16:51:21.509Z,70272.94
2022-08-16T16:53:56.258Z,70243.09
2022-08-16T16:56:30.301Z,70228.56
2022-08-16T16:59:02.184Z,70181.72
2022-08-16T17:01:59.995Z,70185.53
2022-08-16T17:04:31.291Z,70158.72
2022-08-16T17:07:03.586Z,70140.38
2022-08-16T17:09:30.912Z,70124.97
2022-08-16T17:11:58.959Z,70129.53
2022-08-16T17:14:33.180Z,70167.88
2022-08-16T17:17:08.377Z,70152.47
2022-08-16T17:19:41.242Z,70181.66
2022-08-16T17:22:14.556Z,70185.09
2022-08-16T17:24:50.982Z,70181.09
2022-08-16T17:27:33.191Z,70169.03
2022-08-16T17:30:15.956Z,70155.84
2022-08-16T17:32:50.695Z,70150.13
2022-08-16T17:35:55.443Z,70148.25
2022-08-16T17:38:38.530Z,70123.56
2022-08-16T17:41:07.947Z,70122.00
2022-08-16T17:43:43.813Z,70106.94
2022-08-16T17:46:41.340Z,70101.63
2022-08-16T17:49:00.823Z,70088.19
2022-08-16T17:51:28.585Z,70071.72
2022-08-16T17:53:56.556Z,70053.88
2022-08-16T17:56:23.915Z,70045.28
2022-08-16T17:58:51.126Z,70041.84
2022-08-16T18:01:24.117Z,70057.63
2022-08-16T18:04:08.915Z,70020.03
2022-08-16T18:06:38.059Z,70001.72
2022-08-16T18:09:07.009Z,70028.41
2022-08-16T18:11:40.841Z,70025.13
2022-08-16T18:14:09.758Z,70022.28
2022-08-16T18:16:37.019Z,70021.97
2022-08-16T18:19:04.263Z,69987.97
2022-08-16T18:21:49.752Z,70014.66
2022-08-16T18:24:19.124Z,70013.94
2022-08-16T18:26:46.681Z,69998.63
2022-08-16T18:29:14.085Z,69987.31
2022-08-16T18:31:41.436Z,69991.34
2022-08-16T18:34:08.638Z,69991.16
2022-08-16T18:36:37.196Z,69988.44
2022-08-16T18:39:04.708Z,69961.06
2022-08-16T18:41:37.103Z,69974.84
2022-08-16T18:44:26.473Z,69975.66
2022-08-16T18:46:55.402Z,69957.63
2022-08-16T18:49:22.690Z,69978.69
2022-08-16T18:51:50.921Z,69971.66
2022-08-16T18:54:18.787Z,69968.97
2022-08-16T18:56:53.733Z,69982.56
2022-08-16T18:59:27.392Z,69970.09
2022-08-16T19:01:56.947Z,69968.38
2022-08-16T19:04:56.197Z,69968.81
2022-08-16T19:07:16.971Z,69954.78
2022-08-16T19:09:44.509Z,69963.09
2022-08-16T19:12:11.847Z,69953.34
2022-08-16T19:14:45.512Z,69956.38
2022-08-16T19:17:12.994Z,69955.06
2022-08-16T19:19:40.280Z,69950.06
2022-08-16T19:22:08.365Z,69960.63
2022-08-16T19:24:35.758Z,69963.34
2022-08-16T19:27:03.062Z,69954.50
2022-08-16T19:29:31.262Z,69958.09
2022-08-16T19:31:58.541Z,69948.78
2022-08-16T19:34:26.611Z,69942.88
2022-08-16T19:36:54.280Z,69908.34
2022-08-16T19:39:21.410Z,69933.44
2022-08-16T19:41:53.443Z,69907.78
2022-08-16T19:44:22.461Z,69929.44
2022-08-16T19:46:50.188Z,69933.88
2022-08-16T19:49:17.934Z,69940.72
2022-08-16T19:51:46.418Z,69936.72
2022-08-16T19:54:14.100Z,69944.75
2022-08-16T19:56:41.259Z,69948.34
2022-08-16T19:59:39.907Z,69933.56
2022-08-16T20:01:55.548Z,69942.44
2022-08-16T20:04:23.828Z,69918.09
2022-08-16T20:06:52.534Z,69913.53
2022-08-16T20:09:21.538Z,69909.50
2022-08-16T20:11:50.790Z,69926.59
2022-08-16T20:14:24.434Z,69906.06
2022-08-16T20:16:56.151Z,69932.88
2022-08-16T20:19:23.879Z,69942.44
2022-08-16T20:21:51.046Z,69934.59
2022-08-16T20:24:35.570Z,69937.88
2022-08-16T20:27:06.294Z,69931.59
2022-08-16T20:29:34.025Z,69931.00
2022-08-16T20:32:01.779Z,69926.84
2022-08-16T20:34:28.995Z,69903.50
2022-08-16T20:36:56.327Z,69886.47
2022-08-16T20:39:24.184Z,69876.00
2022-08-16T20:41:51.718Z,69861.88
2022-08-16T20:44:22.682Z,69851.56
2022-08-16T20:46:50.245Z,69845.69
2022-08-16T20:49:17.405Z,69842.66
2022-08-16T20:51:46.642Z,69838.81
2022-08-16T20:54:16.614Z,69838.25
2022-08-16T20:56:43.791Z,69813.34
2022-08-16T20:59:11.101Z,69835.94
2022-08-16T21:01:46.850Z,69830.78
2022-08-16T21:04:22.434Z,69831.94
2022-08-16T21:06:53.577Z,69829.81
2022-08-16T21:09:24.933Z,69833.06
2022-08-16T21:11:54.158Z,69831.53
2022-08-16T21:14:22.075Z,69824.78
2022-08-16T21:16:49.566Z,69852.53
2022-08-16T21:19:17.120Z,69846.66
2022-08-16T21:21:44.669Z,69820.78
2022-08-16T21:24:11.870Z,69831.53
2022-08-16T21:26:39.277Z,69837.50
2022-08-16T21:29:07.728Z,69825.66
2022-08-16T21:31:40.726Z,69818.19
2022-08-16T21:34:08.779Z,69808.03
2022-08-16T21:36:36.621Z,69806.75
2022-08-16T21:39:06.267Z,69799.47
2022-08-16T21:41:35.856Z,69794.72
2022-08-16T21:44:03.293Z,69766.97
2022-08-16T21:46:30.491Z,69789.56
2022-08-16T21:48:57.655Z,69763.53
2022-08-16T21:51:25.037Z,69784.41
2022-08-16T21:53:52.211Z,69785.41
2022-08-16T21:56:19.596Z,69784.41
2022-08-16T21:58:53.176Z,69786.53
2022-08-16T22:01:24.088Z,69764.69
2022-08-16T22:03:57.952Z,69798.72
2022-08-16T22:06:41.648Z,69809.03
2022-08-16T22:09:10.588Z,69810.75
2022-08-16T22:11:38.787Z,69802.75
2022-08-16T22:14:06.332Z,69789.56
2022-08-16T22:16:37.614Z,69760.09
2022-08-16T22:19:05.803Z,69779.28
2022-08-16T22:21:34.362Z,69774.13
2022-08-16T22:24:02.586Z,69768.41
2022-08-16T22:26:32.563Z,69763.81
2022-08-16T22:29:06.276Z,69759.97
2022-08-16T22:31:34.630Z,69767.41
2022-08-16T22:34:02.447Z,69777.41
2022-08-16T22:36:30.641Z,69778.13
2022-08-16T22:38:59.551Z,69775.09
2022-08-16T22:41:28.222Z,69757.13
2022-08-16T22:43:56.055Z,69753.53
2022-08-16T22:46:23.623Z,69748.38
2022-08-16T22:48:51.137Z,69743.41
2022-08-16T22:51:23.368Z,69752.56
2022-08-16T22:53:51.146Z,69761.38
2022-08-16T22:56:18.619Z,69743.41
2022-08-16T22:58:46.105Z,69741.53
2022-08-16T23:01:14.011Z,69739.97
2022-08-16T23:03:41.181Z,69740.53
2022-08-16T23:06:09.326Z,69731.78
2022-08-16T23:08:39.977Z,69723.75
2022-08-16T23:11:09.155Z,69714.19
2022-08-16T23:13:36.502Z,69712.34
2022-08-16T23:16:11.009Z,69709.88
2022-08-16T23:18:39.472Z,69705.03
2022-08-16T23:21:08.092Z,69711.75
2022-08-16T23:23:35.177Z,69711.34
2022-08-16T23:26:02.443Z,69699.75
2022-08-16T23:28:30.654Z,69704.56
2022-08-16T23:30:58.350Z,69690.00
2022-08-16T23:33:26.994Z,69688.28
2022-08-16T23:35:56.142Z,69682.44
2022-08-16T23:38:38.013Z,69672.13
2022-08-16T23:41:09.385Z,69658.75
2022-08-16T23:43:41.918Z,69656.84
2022-08-16T23:46:13.145Z,69646.53
2022-08-16T23:49:57.018Z,69660.28
2022-08-16T23:51:27.383Z,69657.41
2022-08-16T23:53:55.795Z,69657.41
2022-08-16T23:56:22.891Z,69644.97
2022-08-16T23:58:51.493Z,69644.25
